createdAt,value
2022-08-09T00:01:01.419Z,98800.7
2022-08-09T00:06:44.541Z,98798.2
2022-08-09T00:12:23.248Z,98799
2022-08-09T00:18:21.982Z,98796.1
2022-08-09T00:24:00.496Z,98799.4
2022-08-09T00:30:26.766Z,98802.6
2022-08-09T00:36:02.320Z,98801
2022-08-09T00:44:28.638Z,98792.1
2022-08-09T00:50:15.701Z,98798.2
2022-08-09T00:56:10.210Z,98797.9
2022-08-09T01:01:46.942Z,98804.4
2022-08-09T01:08:01.613Z,98795.4
2022-08-09T01:14:02.358Z,98793.9
2022-08-09T01:20:03.344Z,98807.6
2022-08-09T01:25:51.001Z,98800.5
2022-08-09T01:32:35.034Z,98797.6
2022-08-09T01:38:16.205Z,98819.2
2022-08-09T01:43:53.202Z,98829.2
2022-08-09T01:49:40.177Z,98839.8
2022-08-09T01:55:34.085Z,98840.1
2022-08-09T02:01:30.712Z,98841
2022-08-09T02:08:59.969Z,98838.7
2022-08-09T02:14:38.275Z,98847.5
2022-08-09T02:20:34.352Z,98847.8
2022-08-09T02:26:28.063Z,98845.6
2022-08-09T02:32:05.541Z,98846.7
2022-08-09T02:37:45.924Z,98839
2022-08-09T02:43:22.310Z,98850.7
2022-08-09T02:49:17.016Z,98842.4
2022-08-09T02:54:57.660Z,98838.3
2022-08-09T03:00:33.156Z,98840.3
2022-08-09T03:06:13.801Z,98842.1
2022-08-09T03:12:13.994Z,98835.7
2022-08-09T03:18:11.249Z,98844.3
2022-08-09T03:24:05.757Z,98843.9
2022-08-09T03:30:04.881Z,98845.9
2022-08-09T03:36:17.516Z,98845.8
2022-08-09T03:42:07.423Z,98833
2022-08-09T03:47:47.666Z,98825.7
2022-08-09T03:53:38.016Z,98820.7
2022-08-09T03:59:55.926Z,98815.8
2022-08-09T04:05:45.493Z,98817.6
2022-08-09T04:11:20.730Z,98836.1
2022-08-09T04:17:22.334Z,98837.9
2022-08-09T04:22:55.503Z,98851.6
2022-08-09T04:28:47.396Z,98847.7
2022-08-09T04:34:32.271Z,98841.9
2022-08-09T04:40:10.007Z,98846
2022-08-09T04:45:54.863Z,98859.8
2022-08-09T04:51:37.387Z,98869.8
2022-08-09T04:57:12.859Z,98872
2022-08-09T05:02:53.689Z,98874.7
2022-08-09T05:08:29.625Z,98868.4
2022-08-09T05:14:09.538Z,98867.8
2022-08-09T05:19:58.523Z,98869.3
2022-08-09T05:25:37.387Z,98863.1
2022-08-09T05:31:12.285Z,98871.9
2022-08-09T05:36:48.164Z,98870.5
2022-08-09T05:42:29.916Z,98874.4
2022-08-09T05:48:04.819Z,98871.9
2022-08-09T05:53:58.676Z,98862.9
2022-08-09T05:59:42.294Z,98868.7
2022-08-09T06:05:17.392Z,98874.7
2022-08-09T06:11:17.958Z,98883.1
2022-08-09T06:17:16.519Z,98868.4
2022-08-09T06:22:52.437Z,98870.1
2022-08-09T06:28:33.130Z,98863.9
2022-08-09T06:34:10.366Z,98848.3
2022-08-09T06:40:08.623Z,98851.1
2022-08-09T06:46:38.961Z,98834.1
2022-08-09T06:52:16.568Z,98808.3
2022-08-09T06:58:05.399Z,98795.6
2022-08-09T07:04:00.722Z,98776.1
2022-08-09T07:10:19.736Z,98822.9
2022-08-09T07:16:58.200Z,98833.2
2022-08-09T07:22:46.515Z,98829.7
2022-08-09T07:28:29.775Z,98825.8
2022-08-09T07:34:25.932Z,98837.5
2022-08-09T07:40:05.659Z,98854
2022-08-09T07:45:50.380Z,98844.1
2022-08-09T07:52:18.147Z,98850.7
2022-08-09T07:57:58.934Z,98857.2
2022-08-09T08:03:37.474Z,98850.1
2022-08-09T08:09:51.911Z,98858.4
2022-08-09T08:15:50.156Z,98859.5
2022-08-09T08:21:40.883Z,98862.3
2022-08-09T08:27:43.414Z,98860.5
2022-08-09T08:33:25.404Z,98857.9
2022-08-09T08:39:44.994Z,98859.5
2022-08-09T08:45:51.755Z,98862.4
2022-08-09T08:53:01.436Z,98862
2022-08-09T08:58:48.383Z,98852.5
2022-08-09T09:04:29.358Z,98853
2022-08-09T09:10:27.303Z,98843.8
2022-08-09T09:16:03.193Z,98830
2022-08-09T09:21:47.265Z,98818.9
2022-08-09T09:28:11.204Z,98809.1
2022-08-09T09:34:55.076Z,98808.8
2022-08-09T09:40:31.506Z,98830.9
2022-08-09T09:46:46.307Z,98842.1
2022-08-09T09:52:57.571Z,98833
2022-08-09T09:58:34.092Z,98843.8
2022-08-09T10:04:10.467Z,98849.6
2022-08-09T10:09:55.365Z,98841.1
2022-08-09T10:17:24.267Z,98839.7
2022-08-09T10:23:39.980Z,98847.1
2022-08-09T10:39:00.696Z,98847.4
2022-08-09T10:44:43.824Z,98852.9
2022-08-09T10:50:33.132Z,98859.6
2022-08-09T10:56:08.332Z,98857.5
2022-08-09T11:04:01.496Z,98862.9
2022-08-09T11:10:09.881Z,98861.1
2022-08-09T11:16:07.294Z,98861.1
2022-08-09T11:22:16.844Z,98863.2
2022-08-09T11:28:34.265Z,98860.9
2022-08-09T11:34:32.079Z,98861.5
2022-08-09T11:40:09.002Z,98860.4
2022-08-09T11:45:46.621Z,98856.1
2022-08-09T11:54:00.238Z,98856.1
2022-08-09T12:00:27.178Z,98857.4
2022-08-09T12:06:03.540Z,98857.1
2022-08-09T12:12:04.426Z,98855.7
2022-08-09T12:17:52.207Z,98856.2
2022-08-09T12:24:10.657Z,98851.3
2022-08-09T12:30:39.447Z,98849.9
2022-08-09T12:36:36.553Z,98846.2
2022-08-09T12:42:17.246Z,98842.3
2022-08-09T12:47:52.265Z,98838.6
2022-08-09T12:53:44.721Z,98825.5
2022-08-09T13:00:07.668Z,98820.3
2022-08-09T13:06:21.812Z,98810.1
2022-08-09T13:12:02.727Z,98797
2022-08-09T13:18:09.970Z,98788.2
2022-08-09T13:24:54.769Z,98786
2022-08-09T13:32:27.767Z,98779.8
2022-08-09T13:39:02.578Z,98771.2
2022-08-09T13:47:58.860Z,98759.4
2022-08-09T13:53:45.214Z,98753
2022-08-09T13:59:25.905Z,98739.5
2022-08-09T14:06:03.537Z,98733.1
2022-08-09T14:12:16.494Z,98726.3
2022-08-09T14:18:30.247Z,98717.3
2022-08-09T14:24:33.982Z,98707.2
2022-08-09T14:30:42.690Z,98701.7
2022-08-09T14:36:21.931Z,98694.5
2022-08-09T14:42:34.416Z,98687.3
2022-08-09T14:48:09.430Z,98682.2
2022-08-09T14:53:53.237Z,98679.9
2022-08-09T14:59:30.956Z,98678
2022-08-09T15:05:17.488Z,98674.4
2022-08-09T15:11:07.523Z,98675.2
2022-08-09T15:17:05.755Z,98667.5
2022-08-09T15:22:47.675Z,98668.5
2022-08-09T15:31:18.021Z,98663.5
2022-08-09T15:36:59.080Z,98655.3
2022-08-09T15:42:39.463Z,98645.7
2022-08-09T15:48:32.451Z,98646.5
2022-08-09T15:54:44.500Z,98646.6
2022-08-09T16:00:41.795Z,98648.9
2022-08-09T16:06:38.108Z,98652.5
2022-08-09T16:12:31.926Z,98653.4
2022-08-09T16:18:45.884Z,98643.3
2022-08-09T16:24:34.863Z,98642.1
2022-08-09T16:30:30.009Z,98634.9
2022-08-09T16:36:19.004Z,98632.1
2022-08-09T16:42:05.504Z,98630
2022-08-09T16:49:04.703Z,98637.5
2022-08-09T16:56:14.635Z,98624.2
2022-08-09T17:01:54.136Z,98617.5
2022-08-09T17:09:09.418Z,98625.6
2022-08-09T17:16:02.885Z,98634
2022-08-09T17:21:39.160Z,98642.6
2022-08-09T17:27:16.143Z,98638.9
2022-08-09T17:32:51.911Z,98634.8
2022-08-09T17:38:41.651Z,98629.2
2022-08-09T17:44:50.055Z,98630.1
2022-08-09T17:50:38.062Z,98625.9
2022-08-09T17:56:13.381Z,98626.8
2022-08-09T18:02:26.210Z,98621.2
2022-08-09T18:08:13.777Z,98632.8
2022-08-09T18:14:15.946Z,98644.1
2022-08-09T18:21:23.371Z,98643.5
2022-08-09T18:27:08.117Z,98639.7
2022-08-09T18:32:42.713Z,98650.9
2022-08-09T18:38:17.507Z,98655.7
2022-08-09T18:43:53.907Z,98658.1
2022-08-09T18:49:46.402Z,98660.3
2022-08-09T18:56:05.930Z,98661.1
2022-08-09T19:01:46.604Z,98661.3
2022-08-09T19:07:31.715Z,98667.3
2022-08-09T19:13:49.909Z,98668.3
2022-08-09T19:19:42.497Z,98665.1
2022-08-09T19:26:05.594Z,98663.7
2022-08-09T19:31:52.108Z,98666.9
2022-08-09T19:37:57.817Z,98671.1
2022-08-09T19:44:03.711Z,98677.7
2022-08-09T19:50:54.917Z,98681.6
2022-08-09T19:56:46.376Z,98687.2
2022-08-09T20:04:36.071Z,98689.6
2022-08-09T20:10:37.649Z,98689.4
2022-08-09T20:16:55.210Z,98693.5
2022-08-09T20:22:38.243Z,98699.4
2022-08-09T20:28:49.625Z,98699.1
2022-08-09T20:34:25.303Z,98702.4
2022-08-09T20:40:28.023Z,98700.6
2022-08-09T20:46:45.499Z,98700.6
2022-08-09T20:52:24.655Z,98700.5
2022-08-09T20:58:21.065Z,98690.4
2022-08-09T21:06:00.175Z,98679.8
2022-08-09T21:18:27.934Z,98661.7
2022-08-09T21:24:03.082Z,98661
2022-08-09T21:29:50.086Z,98656.5
2022-08-09T21:35:52.637Z,98654.2
2022-08-09T21:42:11.025Z,98655.7
2022-08-09T21:47:51.439Z,98663.4
2022-08-09T21:53:41.795Z,98667.2
2022-08-09T21:59:25.862Z,98678
2022-08-09T22:05:37.128Z,98674.3
2022-08-09T22:12:24.825Z,98678.6
2022-08-09T22:18:37.987Z,98686
2022-08-09T22:24:25.602Z,98688.5
2022-08-09T22:30:03.055Z,98687.9
2022-08-09T22:36:04.325Z,98678.6
2022-08-09T22:41:43.041Z,98682.5
2022-08-09T22:48:37.055Z,98682.7
2022-08-09T22:54:27.936Z,98685.5
2022-08-09T23:00:06.345Z,98686.9
2022-08-09T23:05:46.777Z,98688
2022-08-09T23:11:26.401Z,98686.8
2022-08-09T23:17:22.951Z,98689.5
2022-08-09T23:22:55.719Z,98694.4
2022-08-09T23:28:30.436Z,98686.3
2022-08-09T23:34:07.312Z,98674.8
2022-08-09T23:39:42.547Z,98670.9
2022-08-09T23:45:38.998Z,98675.6
2022-08-09T23:51:14.993Z,98668.2
2022-08-09T23:56:58.155Z,98661
